createdAt,value
2018-12-21T00:02:14.111Z,9.16
2018-12-21T00:04:41.568Z,9.14
2018-12-21T00:07:08.990Z,9.15
2018-12-21T00:09:36.570Z,9.15
2018-12-21T00:12:04.047Z,9.15
2018-12-21T00:14:31.483Z,9.17
2018-12-21T00:16:58.923Z,9.18
2018-12-21T00:19:26.368Z,9.18
2018-12-21T00:21:53.800Z,9.19
2018-12-21T00:24:21.449Z,9.21
2018-12-21T00:26:48.864Z,9.20
2018-12-21T00:29:16.327Z,9.22
2018-12-21T00:31:49.424Z,9.21
2018-12-21T00:34:22.540Z,9.23
2018-12-21T00:36:55.643Z,9.24
2018-12-21T00:39:28.821Z,9.24
2018-12-21T00:41:55.822Z,9.24
2018-12-21T00:44:25.228Z,9.23
2018-12-21T00:46:54.544Z,9.24
2018-12-21T00:49:23.459Z,9.22
2018-12-21T00:51:50.894Z,9.24
2018-12-21T00:54:18.331Z,9.25
2018-12-21T00:56:45.769Z,9.27
2018-12-21T00:59:13.254Z,9.29
2018-12-21T01:01:40.674Z,9.28
2018-12-21T01:04:08.167Z,9.29
2018-12-21T01:06:35.571Z,9.30
2018-12-21T01:09:03.771Z,9.32
2018-12-21T01:11:31.282Z,9.33
2018-12-21T01:13:58.742Z,9.33
2018-12-21T01:16:26.381Z,9.34
2018-12-21T01:18:53.878Z,9.36
2018-12-21T01:21:21.474Z,9.36
2018-12-21T01:23:49.074Z,9.37
2018-12-21T01:26:16.622Z,9.37
2018-12-21T01:28:44.051Z,9.37
2018-12-21T01:31:11.491Z,9.37
2018-12-21T01:33:38.908Z,9.37
2018-12-21T01:36:06.329Z,9.37
2018-12-21T01:38:33.748Z,9.39
2018-12-21T01:41:01.247Z,9.39
2018-12-21T01:43:28.677Z,9.39
2018-12-21T01:45:56.121Z,9.42
2018-12-21T01:48:23.538Z,9.41
2018-12-21T01:50:50.987Z,9.40
2018-12-21T01:53:18.393Z,9.39
2018-12-21T01:55:45.827Z,9.37
2018-12-21T01:58:13.258Z,9.35
2018-12-21T02:00:40.769Z,9.36
2018-12-21T02:03:08.247Z,9.35
2018-12-21T02:05:35.924Z,9.34
2018-12-21T02:08:03.351Z,9.34
2018-12-21T02:10:30.809Z,9.34
2018-12-21T02:12:58.262Z,9.37
2018-12-21T02:15:25.696Z,9.34
2018-12-21T02:17:53.322Z,9.36
2018-12-21T02:20:20.855Z,9.36
2018-12-21T02:22:48.305Z,9.38
2018-12-21T02:25:15.760Z,9.41
2018-12-21T02:27:43.193Z,9.42
2018-12-21T02:30:10.717Z,9.43
2018-12-21T02:32:38.165Z,9.43
2018-12-21T02:35:05.739Z,9.46
2018-12-21T02:37:33.158Z,9.47
2018-12-21T02:40:00.607Z,9.50
2018-12-21T02:42:28.340Z,9.49
2018-12-21T02:44:55.858Z,9.51
2018-12-21T02:47:23.287Z,9.51
2018-12-21T02:49:50.828Z,9.53
2018-12-21T02:52:18.397Z,9.53
2018-12-21T02:54:45.867Z,9.52
2018-12-21T02:57:13.284Z,9.50
2018-12-21T02:59:40.723Z,9.49
2018-12-21T03:02:08.237Z,9.47
2018-12-21T03:04:35.677Z,9.47
2018-12-21T03:07:03.110Z,9.48
2018-12-21T03:09:31.591Z,9.51
2018-12-21T03:11:59.023Z,9.52
2018-12-21T03:14:26.490Z,9.55
2018-12-21T03:16:53.901Z,9.55
2018-12-21T03:19:21.592Z,9.58
2018-12-21T03:21:49.048Z,9.60
2018-12-21T03:24:16.488Z,9.62
2018-12-21T03:26:44.124Z,9.63
2018-12-21T03:29:11.564Z,9.65
2018-12-21T03:31:39.029Z,9.66
2018-12-21T03:34:06.582Z,9.67
2018-12-21T03:36:33.997Z,9.69
2018-12-21T03:39:01.524Z,9.71
2018-12-21T03:41:29.049Z,9.73
2018-12-21T03:43:56.520Z,9.75
2018-12-21T03:46:23.974Z,9.77
2018-12-21T03:48:51.377Z,9.78
2018-12-21T03:51:18.838Z,9.80
2018-12-21T03:53:46.267Z,9.82
2018-12-21T03:56:13.752Z,9.81
2018-12-21T03:58:41.163Z,9.82
2018-12-21T04:01:08.740Z,9.80
2018-12-21T04:03:36.228Z,9.78
2018-12-21T04:06:03.661Z,9.78
2018-12-21T04:08:31.073Z,9.79
2018-12-21T04:10:58.505Z,9.80
2018-12-21T04:13:25.940Z,9.82
2018-12-21T04:15:53.374Z,9.82
2018-12-21T04:18:20.852Z,9.82
2018-12-21T04:20:48.275Z,9.86
2018-12-21T04:23:15.749Z,9.87
2018-12-21T04:25:43.170Z,9.89
2018-12-21T04:28:10.664Z,9.90
2018-12-21T04:30:38.067Z,9.88
2018-12-21T04:33:05.509Z,9.86
2018-12-21T04:35:32.906Z,9.82
2018-12-21T04:38:00.332Z,9.79
2018-12-21T04:40:27.755Z,9.79
2018-12-21T04:42:55.248Z,9.80
2018-12-21T04:45:22.820Z,9.78
2018-12-21T04:47:50.501Z,9.77
2018-12-21T04:50:17.957Z,9.75
2018-12-21T04:52:45.411Z,9.74
2018-12-21T04:55:12.851Z,9.76
2018-12-21T04:57:40.541Z,9.75
2018-12-21T05:00:08.136Z,9.72
2018-12-21T05:02:35.565Z,9.67
2018-12-21T05:05:03.101Z,9.68
2018-12-21T05:07:30.534Z,9.65
2018-12-21T05:09:57.959Z,9.66
2018-12-21T05:12:25.371Z,9.65
2018-12-21T05:14:52.811Z,9.66
2018-12-21T05:17:20.215Z,9.68
2018-12-21T05:19:47.791Z,9.70
2018-12-21T05:22:15.312Z,9.72
2018-12-21T05:24:42.766Z,9.70
2018-12-21T05:27:10.402Z,9.67
2018-12-21T05:29:39.600Z,9.70
2018-12-21T05:32:07.187Z,9.70
2018-12-21T05:34:34.606Z,9.69
2018-12-21T05:37:02.018Z,9.68
2018-12-21T05:39:29.468Z,9.65
2018-12-21T05:41:56.981Z,9.65
2018-12-21T05:44:24.407Z,9.67
2018-12-21T05:46:51.870Z,9.66
2018-12-21T05:49:19.290Z,9.63
2018-12-21T05:51:46.727Z,9.63
2018-12-21T05:54:14.154Z,9.60
2018-12-21T05:56:41.563Z,9.60
2018-12-21T05:59:08.982Z,9.59
2018-12-21T06:01:36.398Z,9.57
2018-12-21T06:04:04.875Z,9.57
2018-12-21T06:06:32.301Z,9.57
2018-12-21T06:08:59.880Z,9.57
2018-12-21T06:11:27.356Z,9.57
2018-12-21T06:13:54.872Z,9.52
2018-12-21T06:16:22.343Z,9.57
2018-12-21T06:18:49.780Z,9.58
2018-12-21T06:21:17.217Z,9.62
2018-12-21T06:23:44.685Z,9.62
2018-12-21T06:26:12.107Z,9.60
2018-12-21T06:28:39.547Z,9.58
2018-12-21T06:31:07.197Z,9.60
2018-12-21T06:33:34.621Z,9.58
2018-12-21T06:36:07.068Z,9.60
2018-12-21T06:38:34.492Z,9.60
2018-12-21T06:41:01.911Z,9.61
2018-12-21T06:43:29.368Z,9.64
2018-12-21T06:45:58.159Z,9.62
2018-12-21T06:48:25.595Z,9.65
2018-12-21T06:50:53.115Z,9.69
2018-12-21T06:53:20.763Z,9.69
2018-12-21T06:55:48.161Z,9.71
2018-12-21T06:58:15.594Z,9.73
2018-12-21T07:00:43.006Z,9.73
2018-12-21T07:03:17.092Z,9.75
2018-12-21T07:05:39.853Z,9.77
2018-12-21T07:08:07.317Z,9.79
2018-12-21T07:10:34.746Z,9.80
2018-12-21T07:13:02.165Z,9.82
2018-12-21T07:15:29.569Z,9.82
2018-12-21T07:17:57.010Z,9.84
2018-12-21T07:20:24.403Z,9.84
2018-12-21T07:22:51.830Z,9.86
2018-12-21T07:25:19.247Z,9.86
2018-12-21T07:27:46.683Z,9.87
2018-12-21T07:30:14.373Z,9.88
2018-12-21T07:32:41.798Z,9.90
2018-12-21T07:35:09.516Z,9.88
2018-12-21T07:37:37.099Z,9.90
2018-12-21T07:40:07.827Z,9.92
2018-12-21T07:42:35.236Z,9.93
2018-12-21T07:45:02.947Z,9.95
2018-12-21T07:47:32.170Z,9.97
2018-12-21T07:49:59.814Z,9.99
2018-12-21T07:52:27.250Z,10.00
2018-12-21T07:54:54.675Z,10.02
2018-12-21T07:57:22.089Z,10.02
2018-12-21T07:59:49.658Z,10.04
2018-12-21T08:02:17.066Z,10.05
2018-12-21T08:04:44.537Z,10.08
2018-12-21T08:07:11.962Z,10.09
2018-12-21T08:09:39.406Z,10.11
2018-12-21T08:12:06.839Z,10.09
2018-12-21T08:14:34.264Z,10.07
2018-12-21T08:17:01.706Z,10.09
2018-12-21T08:19:29.133Z,10.05
2018-12-21T08:21:56.588Z,10.05
2018-12-21T08:24:24.011Z,10.08
2018-12-21T08:26:51.547Z,10.10
2018-12-21T08:29:18.979Z,10.10
2018-12-21T08:31:46.535Z,10.12
2018-12-21T08:34:14.054Z,10.14
2018-12-21T08:36:41.519Z,10.16
2018-12-21T08:39:08.929Z,10.15
2018-12-21T08:41:36.362Z,10.14
2018-12-21T08:44:03.864Z,10.15
2018-12-21T08:46:31.288Z,10.17
2018-12-21T08:48:58.722Z,10.19
2018-12-21T08:51:26.153Z,10.22
2018-12-21T08:53:53.614Z,10.23
2018-12-21T08:56:21.034Z,10.27
2018-12-21T08:58:48.448Z,10.30
2018-12-21T09:01:15.862Z,10.32
2018-12-21T09:03:43.305Z,10.35
2018-12-21T09:06:18.262Z,10.36
2018-12-21T09:08:40.187Z,10.36
2018-12-21T09:11:07.619Z,10.37
2018-12-21T09:13:35.078Z,10.38
2018-12-21T09:16:02.515Z,10.41
2018-12-21T09:18:29.981Z,10.41
2018-12-21T09:20:57.410Z,10.43
2018-12-21T09:23:24.860Z,10.47
2018-12-21T09:25:52.308Z,10.51
2018-12-21T09:28:19.905Z,10.54
2018-12-21T09:30:47.303Z,10.59
2018-12-21T09:33:14.741Z,10.65
2018-12-21T09:35:42.428Z,10.70
2018-12-21T09:38:10.055Z,10.75
2018-12-21T09:40:37.495Z,10.79
2018-12-21T09:43:05.019Z,10.84
2018-12-21T09:45:32.440Z,10.91
2018-12-21T09:47:59.879Z,11.00
2018-12-21T09:50:27.338Z,11.04
2018-12-21T09:52:54.798Z,11.07
2018-12-21T09:55:22.224Z,11.13
2018-12-21T09:57:49.646Z,11.17
2018-12-21T10:00:17.086Z,11.17
2018-12-21T10:02:44.513Z,11.27
2018-12-21T10:05:12.043Z,11.30
2018-12-21T10:07:41.469Z,11.34
2018-12-21T10:10:08.902Z,11.40
2018-12-21T10:12:36.395Z,11.44
2018-12-21T10:15:04.661Z,11.49
2018-12-21T10:17:32.095Z,11.53
2018-12-21T10:19:59.534Z,11.55
2018-12-21T10:22:26.952Z,11.58
2018-12-21T10:24:54.399Z,11.62
2018-12-21T10:27:22.094Z,11.67
2018-12-21T10:29:49.541Z,11.70
2018-12-21T10:32:16.967Z,11.73
2018-12-21T10:34:44.434Z,11.77
2018-12-21T10:37:11.887Z,11.80
2018-12-21T10:39:39.323Z,11.84
2018-12-21T10:42:06.754Z,11.87
2018-12-21T10:44:34.887Z,11.92
2018-12-21T10:47:02.348Z,11.96
2018-12-21T10:49:32.088Z,11.99
2018-12-21T10:51:59.282Z,12.04
2018-12-21T10:54:27.205Z,12.09
2018-12-21T10:56:54.923Z,12.13
2018-12-21T10:59:22.381Z,12.17
2018-12-21T11:01:50.113Z,12.19
2018-12-21T11:04:17.583Z,12.27
2018-12-21T11:06:45.043Z,12.32
2018-12-21T11:09:12.504Z,12.34
2018-12-21T11:11:39.951Z,12.38
2018-12-21T11:14:07.447Z,12.43
2018-12-21T11:16:34.868Z,12.47
2018-12-21T11:19:02.323Z,12.52
2018-12-21T11:21:29.818Z,12.55
2018-12-21T11:23:57.302Z,12.57
2018-12-21T11:26:24.789Z,12.58
2018-12-21T11:28:52.242Z,12.62
2018-12-21T11:31:19.672Z,12.65
2018-12-21T11:33:47.142Z,12.69
2018-12-21T11:36:14.561Z,12.74
2018-12-21T11:38:41.999Z,12.78
2018-12-21T11:41:09.458Z,12.82
2018-12-21T11:43:36.901Z,12.89
2018-12-21T11:46:04.324Z,12.90
2018-12-21T11:48:31.782Z,12.92
2018-12-21T11:50:59.222Z,12.92
2018-12-21T11:53:26.758Z,12.93
2018-12-21T11:55:54.202Z,12.93
2018-12-21T11:58:21.865Z,12.94
2018-12-21T12:00:49.317Z,12.96
2018-12-21T12:03:16.830Z,12.98
2018-12-21T12:05:44.299Z,13.02
2018-12-21T12:08:11.736Z,13.07
2018-12-21T12:10:39.240Z,13.12
2018-12-21T12:13:06.669Z,13.16
2018-12-21T12:15:34.115Z,13.20
2018-12-21T12:18:02.854Z,13.21
2018-12-21T12:20:30.407Z,13.27
2018-12-21T12:22:57.838Z,13.26
2018-12-21T12:25:25.288Z,13.25
2018-12-21T12:27:52.721Z,13.20
2018-12-21T12:30:20.197Z,13.18
2018-12-21T12:32:47.661Z,13.18
2018-12-21T12:35:15.113Z,13.15
2018-12-21T12:37:42.563Z,13.13
2018-12-21T12:40:10.010Z,13.11
2018-12-21T12:42:37.448Z,13.07
2018-12-21T12:45:09.351Z,13.05
2018-12-21T12:47:36.810Z,13.06
2018-12-21T12:50:05.175Z,13.05
2018-12-21T12:52:32.616Z,13.08
2018-12-21T12:55:02.648Z,13.13
2018-12-21T12:57:29.562Z,13.20
2018-12-21T12:59:56.995Z,13.29
2018-12-21T13:02:24.467Z,13.36
2018-12-21T13:04:51.909Z,13.41
2018-12-21T13:07:19.392Z,13.44
2018-12-21T13:09:46.893Z,13.46
2018-12-21T13:12:14.382Z,13.42
2018-12-21T13:14:41.811Z,13.41
2018-12-21T13:17:09.918Z,13.44
2018-12-21T13:19:37.362Z,13.46
2018-12-21T13:22:04.811Z,13.50
2018-12-21T13:24:34.098Z,13.54
2018-12-21T13:27:01.739Z,13.53
2018-12-21T13:29:29.195Z,13.52
2018-12-21T13:31:56.655Z,13.51
2018-12-21T13:34:24.112Z,13.50
2018-12-21T13:36:51.559Z,13.49
2018-12-21T13:39:18.987Z,13.47
2018-12-21T13:41:46.545Z,13.47
2018-12-21T13:44:14.053Z,13.47
2018-12-21T13:46:41.486Z,13.43
2018-12-21T13:49:08.928Z,13.42
2018-12-21T13:51:36.347Z,13.39
2018-12-21T13:54:03.918Z,13.36
2018-12-21T13:56:31.422Z,13.35
2018-12-21T13:58:58.866Z,13.34
2018-12-21T14:01:26.303Z,13.35
2018-12-21T14:03:53.747Z,13.33
2018-12-21T14:06:21.191Z,13.32
2018-12-21T14:08:48.644Z,13.30
2018-12-21T14:11:16.236Z,13.28
2018-12-21T14:13:43.718Z,13.26
2018-12-21T14:16:11.198Z,13.26
2018-12-21T14:18:38.649Z,13.30
2018-12-21T14:21:06.096Z,13.32
2018-12-21T14:23:33.552Z,13.32
2018-12-21T14:26:00.992Z,13.33
2018-12-21T14:28:28.515Z,13.33
2018-12-21T14:30:56.003Z,13.34
2018-12-21T14:33:23.423Z,13.30
2018-12-21T14:35:50.894Z,13.29
2018-12-21T14:38:18.383Z,13.25
2018-12-21T14:40:46.299Z,13.23
2018-12-21T14:43:13.740Z,13.23
2018-12-21T14:45:41.190Z,13.20
2018-12-21T14:48:08.750Z,13.19
2018-12-21T14:50:36.230Z,13.18
2018-12-21T14:53:03.764Z,13.16
2018-12-21T14:55:37.475Z,13.18
2018-12-21T14:58:00.941Z,13.19
2018-12-21T15:00:28.494Z,13.15
2018-12-21T15:02:56.009Z,13.15
2018-12-21T15:05:23.521Z,13.14
2018-12-21T15:07:50.991Z,13.15
2018-12-21T15:10:18.427Z,13.13
2018-12-21T15:12:45.881Z,13.11
2018-12-21T15:15:13.330Z,13.09
2018-12-21T15:17:40.769Z,13.07
2018-12-21T15:20:08.368Z,13.08
2018-12-21T15:22:35.854Z,13.08
2018-12-21T15:25:03.296Z,13.07
2018-12-21T15:27:30.731Z,13.07
2018-12-21T15:29:58.197Z,13.04
2018-12-21T15:32:25.732Z,13.02
2018-12-21T15:34:53.203Z,13.01
2018-12-21T15:37:20.664Z,13.01
2018-12-21T15:39:48.083Z,13.00
2018-12-21T15:42:15.584Z,13.00
2018-12-21T15:44:42.997Z,12.99
2018-12-21T15:47:10.436Z,12.96
2018-12-21T15:49:37.902Z,12.94
2018-12-21T15:52:05.525Z,12.91
2018-12-21T15:54:32.992Z,12.90
2018-12-21T15:57:00.482Z,12.88
2018-12-21T15:59:27.988Z,12.88
2018-12-21T16:01:55.499Z,12.86
2018-12-21T16:04:22.959Z,12.88
2018-12-21T16:06:50.397Z,12.85
2018-12-21T16:09:17.923Z,12.83
2018-12-21T16:11:45.370Z,12.84
2018-12-21T16:14:12.823Z,12.82
2018-12-21T16:16:40.259Z,12.82
2018-12-21T16:19:07.791Z,12.78
2018-12-21T16:21:35.444Z,12.74
2018-12-21T16:24:06.826Z,12.71
2018-12-21T16:26:32.415Z,12.68
2018-12-21T16:28:59.866Z,12.66
2018-12-21T16:31:27.351Z,12.65
2018-12-21T16:33:54.801Z,12.63
2018-12-21T16:36:22.282Z,12.60
2018-12-21T16:38:49.711Z,12.57
2018-12-21T16:41:17.160Z,12.57
2018-12-21T16:43:44.595Z,12.56
2018-12-21T16:46:12.059Z,12.55
2018-12-21T16:48:39.701Z,12.55
2018-12-21T16:51:07.241Z,12.54
2018-12-21T16:53:34.675Z,12.54
2018-12-21T16:56:02.240Z,12.55
2018-12-21T16:58:29.662Z,12.51
2018-12-21T17:00:57.168Z,12.46
2018-12-21T17:03:24.651Z,12.43
2018-12-21T17:05:52.090Z,12.40
2018-12-21T17:08:19.593Z,12.41
2018-12-21T17:10:47.152Z,12.42
2018-12-21T17:13:14.647Z,12.41
2018-12-21T17:15:42.087Z,12.35
2018-12-21T17:18:09.565Z,12.32
2018-12-21T17:20:36.988Z,12.32
2018-12-21T17:23:04.450Z,12.28
2018-12-21T17:25:32.078Z,12.26
2018-12-21T17:27:59.538Z,12.22
2018-12-21T17:30:26.963Z,12.19
2018-12-21T17:32:54.419Z,12.15
2018-12-21T17:35:21.828Z,12.14
2018-12-21T17:37:49.403Z,12.14
2018-12-21T17:40:16.820Z,12.11
2018-12-21T17:42:44.296Z,12.11
2018-12-21T17:45:11.722Z,12.12
2018-12-21T17:47:39.161Z,12.14
2018-12-21T17:50:07.576Z,12.17
2018-12-21T17:52:35.007Z,12.18
2018-12-21T17:55:02.445Z,12.19
2018-12-21T17:57:29.887Z,12.16
2018-12-21T17:59:57.334Z,12.15
2018-12-21T18:02:24.771Z,12.17
2018-12-21T18:04:52.506Z,12.18
2018-12-21T18:07:19.939Z,12.18
2018-12-21T18:09:47.399Z,12.19
2018-12-21T18:12:14.845Z,12.19
2018-12-21T18:14:42.279Z,12.19
2018-12-21T18:17:09.705Z,12.21
2018-12-21T18:19:37.156Z,12.20
2018-12-21T18:22:04.835Z,12.17
2018-12-21T18:24:32.302Z,12.15
2018-12-21T18:26:59.722Z,12.11
2018-12-21T18:29:27.176Z,12.09
2018-12-21T18:31:54.673Z,12.08
2018-12-21T18:34:25.883Z,12.10
2018-12-21T18:36:53.386Z,12.12
2018-12-21T18:39:20.828Z,12.14
2018-12-21T18:41:48.260Z,12.14
2018-12-21T18:44:15.720Z,12.14
2018-12-21T18:46:43.156Z,12.13
2018-12-21T18:49:10.594Z,12.13
2018-12-21T18:51:38.049Z,12.16
2018-12-21T18:54:05.522Z,12.15
2018-12-21T18:56:35.458Z,12.16
2018-12-21T18:59:02.923Z,12.15
2018-12-21T19:01:30.575Z,12.14
2018-12-21T19:03:58.038Z,12.11
2018-12-21T19:06:25.490Z,12.10
2018-12-21T19:08:52.981Z,12.08
2018-12-21T19:11:20.449Z,12.08
2018-12-21T19:13:47.856Z,12.08
2018-12-21T19:16:15.316Z,12.11
2018-12-21T19:18:42.721Z,12.13
2018-12-21T19:21:10.162Z,12.15
2018-12-21T19:23:37.607Z,12.15
2018-12-21T19:26:05.066Z,12.15
2018-12-21T19:28:32.508Z,12.15
2018-12-21T19:30:59.949Z,12.14
2018-12-21T19:33:27.385Z,12.14
2018-12-21T19:35:55.147Z,12.16
2018-12-21T19:38:22.601Z,12.17
2018-12-21T19:40:50.050Z,12.17
2018-12-21T19:43:17.487Z,12.17
2018-12-21T19:45:44.918Z,12.15
2018-12-21T19:48:12.545Z,12.13
2018-12-21T19:50:40.020Z,12.14
2018-12-21T19:53:07.468Z,12.14
2018-12-21T19:55:39.809Z,12.13
2018-12-21T19:58:07.250Z,12.15
2018-12-21T20:00:34.673Z,12.14
2018-12-21T20:03:02.118Z,12.14
2018-12-21T20:05:29.569Z,12.15
2018-12-21T20:07:57.392Z,12.14
2018-12-21T20:10:24.811Z,12.14
2018-12-21T20:12:52.294Z,12.11
2018-12-21T20:15:19.727Z,12.11
2018-12-21T20:17:47.189Z,12.12
2018-12-21T20:20:14.653Z,12.10
2018-12-21T20:22:42.095Z,12.13
2018-12-21T20:25:09.716Z,12.15
2018-12-21T20:27:37.235Z,12.16
2018-12-21T20:30:08.186Z,12.15
2018-12-21T20:32:35.636Z,12.11
2018-12-21T20:35:03.953Z,12.07
2018-12-21T20:37:31.396Z,12.04
2018-12-21T20:39:58.864Z,12.00
2018-12-21T20:42:26.314Z,11.99
2018-12-21T20:44:53.789Z,11.96
2018-12-21T20:47:21.245Z,11.95
2018-12-21T20:49:48.700Z,11.96
2018-12-21T20:52:16.147Z,11.95
2018-12-21T20:54:43.695Z,11.93
2018-12-21T20:57:11.284Z,11.92
2018-12-21T20:59:39.444Z,11.89
2018-12-21T21:02:06.882Z,11.84
2018-12-21T21:04:35.281Z,11.84
2018-12-21T21:07:02.711Z,11.81
2018-12-21T21:09:30.159Z,11.80
2018-12-21T21:11:57.610Z,11.77
2018-12-21T21:14:25.140Z,11.74
2018-12-21T21:16:52.622Z,11.73
2018-12-21T21:19:20.050Z,11.72
2018-12-21T21:21:47.533Z,11.72
2018-12-21T21:24:15.053Z,11.69
2018-12-21T21:26:42.501Z,11.69
2018-12-21T21:29:09.939Z,11.69
2018-12-21T21:31:37.400Z,11.66
2018-12-21T21:34:04.845Z,11.66
2018-12-21T21:36:32.351Z,11.69
2018-12-21T21:38:59.793Z,11.73
2018-12-21T21:41:27.251Z,11.72
2018-12-21T21:43:54.709Z,11.72
2018-12-21T21:46:22.142Z,11.71
2018-12-21T21:48:49.585Z,11.74
2018-12-21T21:51:17.055Z,11.74
2018-12-21T21:53:44.482Z,11.75
2018-12-21T21:56:11.907Z,11.73
2018-12-21T21:58:39.376Z,11.70
2018-12-21T22:01:07.082Z,11.69
2018-12-21T22:03:34.607Z,11.68
2018-12-21T22:06:02.103Z,11.66
2018-12-21T22:08:29.565Z,11.67
2018-12-21T22:11:01.765Z,11.63
2018-12-21T22:13:26.499Z,11.61
2018-12-21T22:15:53.935Z,11.57
2018-12-21T22:18:21.484Z,11.58
2018-12-21T22:20:48.931Z,11.59
2018-12-21T22:23:16.379Z,11.58
2018-12-21T22:25:43.829Z,11.55
2018-12-21T22:28:11.291Z,11.54
2018-12-21T22:30:38.741Z,11.55
2018-12-21T22:33:06.267Z,11.55
2018-12-21T22:35:33.827Z,11.52
2018-12-21T22:38:01.312Z,11.53
2018-12-21T22:40:28.750Z,11.51
2018-12-21T22:42:56.312Z,11.48
2018-12-21T22:45:23.743Z,11.47
2018-12-21T22:47:51.176Z,11.47
2018-12-21T22:50:18.628Z,11.47
2018-12-21T22:52:46.230Z,11.49
2018-12-21T22:55:13.691Z,11.49
2018-12-21T22:57:41.110Z,11.49
2018-12-21T23:00:11.212Z,11.47
2018-12-21T23:02:38.655Z,11.46
2018-12-21T23:05:06.338Z,11.45
2018-12-21T23:07:33.971Z,11.40
2018-12-21T23:10:01.459Z,11.37
2018-12-21T23:12:28.894Z,11.39
2018-12-21T23:14:56.370Z,11.40
2018-12-21T23:17:23.878Z,11.43
2018-12-21T23:19:51.347Z,11.45
2018-12-21T23:22:18.772Z,11.46
2018-12-21T23:24:46.279Z,11.48
2018-12-21T23:27:13.702Z,11.49
2018-12-21T23:29:41.243Z,11.51
2018-12-21T23:32:08.777Z,11.53
2018-12-21T23:34:36.215Z,11.53
2018-12-21T23:37:03.685Z,11.55
2018-12-21T23:39:31.111Z,11.56
2018-12-21T23:41:58.558Z,11.57
2018-12-21T23:44:25.975Z,11.55
2018-12-21T23:46:53.442Z,11.52
2018-12-21T23:49:20.978Z,11.50
2018-12-21T23:51:48.399Z,11.48
2018-12-21T23:54:15.861Z,11.49
2018-12-21T23:56:43.389Z,11.48
2018-12-21T23:59:10.824Z,11.48
